Hlavní strana
METAR-TAF:

METAR-TAF

Letiště :

North Battleford, Saskatchewan, Kanada

zeměpisná šířka: 52-46N, zeměpisná délka: 108-15W, výška: 548 m

Aktuální stav počasí

Zpráva byla vytvořena před 1 hodinou a 8 minutami, v 06:00 UTC
Jihovýchodní vítr 4 kt
Teplota 10°C
Vlhkost vzduchu 76%
Tlak 1025 hPa
Viditelnost: 14.5 km
Polojasno ve výšce 9500 ft

METAR: CYQW 200600Z AUTO 13004KT 9SM SCT095 10/06 A3027 RMK SLP259

Čas: 01:08 (07:08 UTC)

Předpověď počasí

Zpráva byla vytvořena před 1 hodinou a 30 minutami, v 05:38 UTC
Předpověď platná od 20 v 06 UTC do 20 v 18 UTC
vítr z různých směrů 3 kt
Viditelnost: 10 km
Skoro jasno ve výšce 8000 ft

TAF: CYQW 200538Z 2006/2018 VRB03KT P6SM FEW080 RMK FCST BASED ON AUTO OBS. NXT FCST BY 201200Z

Stav a předpovědi počasí z více než 4 000 letišť (zprávy METAR a TAF).

Červené a žluté tečky na mapě představují dostupné meteorologické stanice.

Když kurzor umístíte na tečku, zobrazí se název stanice.

Pak kliknutím zobrazíte stav a předpověď počasí.

Chcete-li změnit mapu, kliknutím na zelené tlačítko se znaménkem +mapu přiblížíte, kliknutím na zelené tlačítko se znaménkem – mapu oddálíte a kliknutím na zelené šipky přejdete na sousední mapy.


METAR-TAF: